createdAt,value
2018-11-14T00:00:16.671Z,102513.30
2018-11-14T00:02:45.219Z,102513.55
2018-11-14T00:05:13.970Z,102507.05
2018-11-14T00:07:42.517Z,102520.03
2018-11-14T00:10:11.464Z,102507.60
2018-11-14T00:12:40.122Z,102511.65
2018-11-14T00:15:12.001Z,102518.06
2018-11-14T00:17:40.899Z,102524.00
2018-11-14T00:20:10.384Z,102528.52
2018-11-14T00:22:39.116Z,102532.81
2018-11-14T00:25:07.991Z,102534.11
2018-11-14T00:27:36.594Z,102541.66
2018-11-14T00:30:05.818Z,102541.02
2018-11-14T00:32:34.407Z,102548.55
2018-11-14T00:35:02.912Z,102548.22
2018-11-14T00:37:31.551Z,102553.56
2018-11-14T00:40:00.107Z,102553.27
2018-11-14T00:42:28.622Z,102555.66
2018-11-14T00:44:57.330Z,102559.70
2018-11-14T00:47:25.860Z,102552.91
2018-11-14T00:49:54.470Z,102557.42
2018-11-14T00:52:23.108Z,102555.22
2018-11-14T00:54:51.658Z,102560.86
2018-11-14T00:57:20.166Z,102557.82
2018-11-14T00:59:48.981Z,102566.70
2018-11-14T01:02:17.479Z,102560.96
2018-11-14T01:04:46.081Z,102571.75
2018-11-14T01:07:14.688Z,102565.50
2018-11-14T01:09:43.242Z,102564.95
2018-11-14T01:12:11.799Z,102564.91
2018-11-14T01:14:40.350Z,102574.59
2018-11-14T01:17:15.732Z,102570.25
2018-11-14T01:19:44.315Z,102568.05
2018-11-14T01:22:12.884Z,102565.30
2018-11-14T01:24:41.636Z,102562.30
2018-11-14T01:27:10.177Z,102568.48
2018-11-14T01:29:38.717Z,102566.25
2018-11-14T01:32:07.371Z,102561.64
2018-11-14T01:34:35.920Z,102555.95
2018-11-14T01:37:04.454Z,102557.55
2018-11-14T01:39:33.096Z,102555.91
2018-11-14T01:42:01.656Z,102553.45
2018-11-14T01:44:30.281Z,102555.85
2018-11-14T01:46:58.898Z,102547.72
2018-11-14T01:49:27.469Z,102545.80
2018-11-14T01:51:56.019Z,102548.71
2018-11-14T01:54:24.633Z,102541.71
2018-11-14T01:56:53.564Z,102557.83
2018-11-14T01:59:22.078Z,102565.62
2018-11-14T02:01:50.636Z,102547.51
2018-11-14T02:04:19.266Z,102532.88
2018-11-14T02:06:47.858Z,102531.53
2018-11-14T02:09:16.354Z,102543.66
2018-11-14T02:11:45.004Z,102548.75
2018-11-14T02:14:13.901Z,102542.85
2018-11-14T02:16:42.619Z,102548.53
2018-11-14T02:19:11.222Z,102549.59
2018-11-14T02:21:39.787Z,102553.92
2018-11-14T02:24:08.404Z,102548.30
2018-11-14T02:26:37.036Z,102543.41
2018-11-14T02:29:09.028Z,102543.66
2018-11-14T02:31:37.574Z,102543.14
2018-11-14T02:34:06.826Z,102542.30
2018-11-14T02:36:35.430Z,102536.11
2018-11-14T02:39:05.377Z,102535.52
2018-11-14T02:41:33.914Z,102532.02
2018-11-14T02:44:02.463Z,102536.30
2018-11-14T02:46:31.068Z,102533.31
2018-11-14T02:48:59.634Z,102534.36
2018-11-14T02:51:29.395Z,102539.44
2018-11-14T02:53:58.612Z,102537.20
2018-11-14T02:56:27.160Z,102532.98
2018-11-14T02:58:55.667Z,102541.42
2018-11-14T03:01:24.287Z,102548.70
2018-11-14T03:03:53.080Z,102543.81
2018-11-14T03:06:21.714Z,102528.44
2018-11-14T03:08:50.216Z,102535.17
2018-11-14T03:11:18.782Z,102525.69
2018-11-14T03:13:47.494Z,102522.41
2018-11-14T03:16:16.043Z,102519.90
2018-11-14T03:18:44.558Z,102522.23
2018-11-14T03:21:13.130Z,102520.33
2018-11-14T03:23:41.722Z,102521.63
2018-11-14T03:26:10.347Z,102515.64
2018-11-14T03:28:38.876Z,102521.81
2018-11-14T03:31:07.626Z,102526.39
2018-11-14T03:33:36.215Z,102517.66
2018-11-14T03:36:10.036Z,102527.14
2018-11-14T03:38:38.690Z,102516.91
2018-11-14T03:41:07.766Z,102515.56
2018-11-14T03:43:36.315Z,102513.08
2018-11-14T03:46:04.902Z,102509.81
2018-11-14T03:48:33.427Z,102516.80
2018-11-14T03:51:02.007Z,102517.84
2018-11-14T03:53:30.662Z,102521.34
2018-11-14T03:55:59.233Z,102508.60
2018-11-14T03:58:27.866Z,102512.40
2018-11-14T04:00:56.324Z,102502.92
2018-11-14T04:03:24.911Z,102499.36
2018-11-14T04:05:53.543Z,102495.27
2018-11-14T04:08:22.135Z,102491.23
2018-11-14T04:10:50.653Z,102473.08
2018-11-14T04:13:19.260Z,102472.57
2018-11-14T04:15:48.078Z,102474.97
2018-11-14T04:18:16.590Z,102482.98
2018-11-14T04:20:45.208Z,102488.66
2018-11-14T04:23:13.724Z,102486.22
2018-11-14T04:25:42.256Z,102496.50
2018-11-14T04:28:10.816Z,102488.06
2018-11-14T04:30:39.404Z,102494.61
2018-11-14T04:33:07.968Z,102492.77
2018-11-14T04:35:36.538Z,102486.72
2018-11-14T04:38:05.179Z,102496.73
2018-11-14T04:40:33.687Z,102499.38
2018-11-14T04:43:02.230Z,102495.34
2018-11-14T04:45:30.795Z,102501.20
2018-11-14T04:47:59.436Z,102495.52
2018-11-14T04:50:28.027Z,102498.45
2018-11-14T04:52:57.081Z,102497.80
2018-11-14T04:55:26.582Z,102503.89
2018-11-14T04:57:55.227Z,102507.39
2018-11-14T05:00:25.015Z,102507.63
2018-11-14T05:02:53.700Z,102496.75
2018-11-14T05:05:23.753Z,102504.11
2018-11-14T05:07:52.300Z,102509.22
2018-11-14T05:10:22.299Z,102509.45
2018-11-14T05:12:51.271Z,102515.95
2018-11-14T05:15:20.946Z,102507.81
2018-11-14T05:17:50.372Z,102503.53
2018-11-14T05:20:19.895Z,102514.30
2018-11-14T05:22:48.732Z,102509.73
2018-11-14T05:25:17.577Z,102508.63
2018-11-14T05:27:46.218Z,102515.70
2018-11-14T05:30:16.028Z,102520.84
2018-11-14T05:32:45.568Z,102517.86
2018-11-14T05:35:14.622Z,102521.51
2018-11-14T05:37:43.188Z,102519.08
2018-11-14T05:40:20.062Z,102522.38
2018-11-14T05:42:49.219Z,102527.76
2018-11-14T05:45:23.081Z,102532.03
2018-11-14T05:47:51.595Z,102525.30
2018-11-14T05:50:21.193Z,102525.00
2018-11-14T05:52:49.706Z,102519.80
2018-11-14T05:55:18.438Z,102530.56
2018-11-14T05:57:47.095Z,102530.39
2018-11-14T06:00:19.500Z,102529.84
2018-11-14T06:02:48.122Z,102526.05
2018-11-14T06:05:16.698Z,102528.27
2018-11-14T06:07:45.551Z,102528.56
2018-11-14T06:10:14.183Z,102524.52
2018-11-14T06:12:43.384Z,102532.30
2018-11-14T06:15:14.723Z,102530.20
2018-11-14T06:17:44.270Z,102520.73
2018-11-14T06:20:21.253Z,102534.30
2018-11-14T06:22:56.247Z,102543.78
2018-11-14T06:25:27.974Z,102543.19
2018-11-14T06:27:57.435Z,102537.42
2018-11-14T06:30:26.447Z,102546.59
2018-11-14T06:32:55.600Z,102537.92
2018-11-14T06:35:24.295Z,102543.13
2018-11-14T06:37:53.472Z,102540.79
2018-11-14T06:40:22.712Z,102543.00
2018-11-14T06:42:51.288Z,102535.52
2018-11-14T06:45:21.920Z,102536.87
2018-11-14T06:47:51.678Z,102539.68
2018-11-14T06:50:20.281Z,102545.92
2018-11-14T06:52:50.819Z,102548.67
2018-11-14T06:55:20.203Z,102553.58
2018-11-14T06:57:48.822Z,102548.49
2018-11-14T07:00:19.448Z,102553.39
2018-11-14T07:02:48.353Z,102557.49
2018-11-14T07:05:17.991Z,102556.50
2018-11-14T07:07:47.054Z,102554.41
2018-11-14T07:10:17.343Z,102557.09
2018-11-14T07:12:45.899Z,102548.83
2018-11-14T07:15:17.123Z,102539.86
2018-11-14T07:17:46.559Z,102551.79
2018-11-14T07:20:18.932Z,102535.01
2018-11-14T07:22:47.502Z,102538.37
2018-11-14T07:25:16.370Z,102534.02
2018-11-14T07:27:45.095Z,102546.81
2018-11-14T07:30:19.740Z,102545.22
2018-11-14T07:32:49.668Z,102543.58
2018-11-14T07:35:18.700Z,102543.88
2018-11-14T07:38:58.230Z,102547.45
2018-11-14T07:41:29.669Z,102554.20
2018-11-14T07:43:58.323Z,102552.36
2018-11-14T07:46:28.294Z,102558.86
2018-11-14T07:48:57.292Z,102566.19
2018-11-14T07:51:26.062Z,102568.05
2018-11-14T07:53:54.597Z,102567.74
2018-11-14T07:56:23.211Z,102565.64
2018-11-14T07:58:51.734Z,102571.09
2018-11-14T08:01:20.311Z,102564.97
2018-11-14T08:03:48.909Z,102572.84
2018-11-14T08:06:17.502Z,102570.70
2018-11-14T08:08:46.445Z,102572.30
2018-11-14T08:11:14.950Z,102577.50
2018-11-14T08:13:48.070Z,102580.00
2018-11-14T08:16:16.678Z,102586.84
2018-11-14T08:18:45.270Z,102585.84
2018-11-14T08:21:13.995Z,102579.16
2018-11-14T08:23:42.539Z,102577.92
2018-11-14T08:26:11.466Z,102583.38
2018-11-14T08:28:40.105Z,102585.94
2018-11-14T08:31:08.660Z,102589.22
2018-11-14T08:33:37.225Z,102585.89
2018-11-14T08:36:06.243Z,102575.45
2018-11-14T08:38:34.791Z,102569.56
2018-11-14T08:41:03.355Z,102567.75
2018-11-14T08:43:31.986Z,102563.80
2018-11-14T08:46:00.578Z,102565.20
2018-11-14T08:48:29.393Z,102573.09
2018-11-14T08:50:58.160Z,102574.49
2018-11-14T08:53:26.777Z,102573.78
2018-11-14T08:55:55.769Z,102566.29
2018-11-14T08:58:24.334Z,102569.63
2018-11-14T09:00:52.882Z,102575.37
2018-11-14T09:03:21.456Z,102584.69
2018-11-14T09:05:50.062Z,102592.28
2018-11-14T09:08:18.656Z,102582.88
2018-11-14T09:10:47.276Z,102582.13
2018-11-14T09:13:16.748Z,102581.41
2018-11-14T09:15:45.358Z,102582.84
2018-11-14T09:18:14.065Z,102585.89
2018-11-14T09:20:42.606Z,102586.30
2018-11-14T09:23:11.192Z,102584.73
2018-11-14T09:25:39.760Z,102586.42
2018-11-14T09:28:08.367Z,102597.02
2018-11-14T09:30:36.964Z,102598.44
2018-11-14T09:33:06.086Z,102600.42
2018-11-14T09:35:34.718Z,102603.20
2018-11-14T09:38:03.218Z,102601.68
2018-11-14T09:40:31.766Z,102604.45
2018-11-14T09:43:00.308Z,102605.05
2018-11-14T09:45:30.132Z,102606.80
2018-11-14T09:47:58.806Z,102606.62
2018-11-14T09:50:31.571Z,102596.68
2018-11-14T09:53:02.440Z,102595.43
2018-11-14T09:55:31.044Z,102589.33
2018-11-14T09:57:59.749Z,102591.03
2018-11-14T10:00:29.938Z,102594.09
2018-11-14T10:03:01.344Z,102593.92
2018-11-14T10:05:29.969Z,102596.47
2018-11-14T10:07:58.573Z,102586.02
2018-11-14T10:10:27.173Z,102593.70
2018-11-14T10:12:55.801Z,102599.48
2018-11-14T10:15:24.992Z,102591.44
2018-11-14T10:17:53.557Z,102599.14
2018-11-14T10:20:23.543Z,102589.99
2018-11-14T10:22:52.101Z,102592.22
2018-11-14T10:25:20.809Z,102591.23
2018-11-14T10:27:50.020Z,102586.41
2018-11-14T10:30:20.630Z,102580.27
2018-11-14T10:32:49.654Z,102568.95
2018-11-14T10:35:18.243Z,102562.77
2018-11-14T10:37:46.809Z,102569.06
2018-11-14T10:40:18.004Z,102568.31
2018-11-14T10:42:46.678Z,102573.48
2018-11-14T10:45:16.557Z,102571.05
2018-11-14T10:47:45.186Z,102572.99
2018-11-14T10:50:16.197Z,102574.11
2018-11-14T10:52:44.738Z,102571.42
2018-11-14T10:55:14.240Z,102571.72
2018-11-14T10:57:42.846Z,102566.05
2018-11-14T11:00:19.117Z,102569.88
2018-11-14T11:02:53.170Z,102575.34
2018-11-14T11:05:26.966Z,102574.58
2018-11-14T11:08:01.263Z,102575.69
2018-11-14T11:10:35.060Z,102571.88
2018-11-14T11:13:09.460Z,102577.31
2018-11-14T11:15:43.208Z,102575.16
2018-11-14T11:18:15.466Z,102583.32
2018-11-14T11:20:44.031Z,102576.51
2018-11-14T11:23:12.608Z,102586.30
2018-11-14T11:25:41.711Z,102577.08
2018-11-14T11:28:10.277Z,102569.73
2018-11-14T11:30:39.165Z,102578.47
2018-11-14T11:33:07.826Z,102574.12
2018-11-14T11:35:36.473Z,102571.41
2018-11-14T11:38:05.511Z,102580.11
2018-11-14T11:40:34.370Z,102579.28
2018-11-14T11:43:03.895Z,102577.65
2018-11-14T11:45:32.856Z,102568.70
2018-11-14T11:48:01.676Z,102568.98
2018-11-14T11:50:30.631Z,102574.94
2018-11-14T11:52:59.383Z,102565.71
2018-11-14T11:55:28.028Z,102565.16
2018-11-14T11:57:56.660Z,102553.78
2018-11-14T12:00:25.337Z,102550.52
2018-11-14T12:02:53.796Z,102553.51
2018-11-14T12:05:22.355Z,102550.23
2018-11-14T12:07:50.935Z,102551.59
2018-11-14T12:10:19.859Z,102545.61
2018-11-14T12:12:48.524Z,102547.80
2018-11-14T12:15:17.051Z,102551.05
2018-11-14T12:17:45.691Z,102551.05
2018-11-14T12:20:15.391Z,102544.81
2018-11-14T12:22:43.986Z,102539.66
2018-11-14T12:25:14.639Z,102539.11
2018-11-14T12:27:43.360Z,102536.92
2018-11-14T12:30:15.376Z,102536.12
2018-11-14T12:32:44.120Z,102530.12
2018-11-14T12:35:14.193Z,102525.77
2018-11-14T12:37:43.169Z,102524.97
2018-11-14T12:40:12.952Z,102522.53
2018-11-14T12:42:41.650Z,102518.45
2018-11-14T12:45:12.483Z,102523.61
2018-11-14T12:47:41.168Z,102521.41
2018-11-14T12:50:16.703Z,102529.05
2018-11-14T12:52:45.334Z,102520.62
2018-11-14T12:55:15.360Z,102520.09
2018-11-14T12:57:43.883Z,102520.34
2018-11-14T13:00:14.238Z,102516.26
2018-11-14T13:02:42.831Z,102519.53
2018-11-14T13:05:12.526Z,102516.26
2018-11-14T13:07:41.184Z,102514.90
2018-11-14T13:10:11.381Z,102513.53
2018-11-14T13:12:39.891Z,102521.41
2018-11-14T13:15:09.833Z,102512.45
2018-11-14T13:17:38.363Z,102511.89
2018-11-14T13:20:10.110Z,102517.03
2018-11-14T13:22:38.631Z,102515.39
2018-11-14T13:25:08.678Z,102513.22
2018-11-14T13:27:37.236Z,102516.18
2018-11-14T13:30:08.328Z,102513.17
2018-11-14T13:32:36.834Z,102497.12
2018-11-14T13:35:07.182Z,102501.19
2018-11-14T13:37:35.676Z,102494.39
2018-11-14T13:40:05.134Z,102488.94
2018-11-14T13:42:33.675Z,102490.30
2018-11-14T13:45:02.242Z,102500.91
2018-11-14T13:47:30.869Z,102497.39
2018-11-14T13:49:59.526Z,102497.67
2018-11-14T13:52:28.121Z,102505.00
2018-11-14T13:54:56.645Z,102502.27
2018-11-14T13:57:25.139Z,102504.72
2018-11-14T13:59:53.746Z,102507.44
2018-11-14T14:02:22.326Z,102505.28
2018-11-14T14:04:50.918Z,102496.84
2018-11-14T14:07:19.513Z,102493.33
2018-11-14T14:09:48.181Z,102497.42
2018-11-14T14:12:16.763Z,102497.98
2018-11-14T14:14:45.359Z,102487.64
2018-11-14T14:17:13.938Z,102484.40
2018-11-14T14:19:42.570Z,102481.97
2018-11-14T14:22:11.208Z,102479.78
2018-11-14T14:24:39.722Z,102482.78
2018-11-14T14:27:08.503Z,102485.26
2018-11-14T14:29:37.046Z,102493.94
2018-11-14T14:32:08.803Z,102486.34
2018-11-14T14:34:37.375Z,102489.86
2018-11-14T14:37:06.187Z,102491.78
2018-11-14T14:39:34.737Z,102490.14
2018-11-14T14:42:03.292Z,102486.34
2018-11-14T14:44:31.916Z,102490.42
2018-11-14T14:47:00.493Z,102490.70
2018-11-14T14:49:29.070Z,102492.07
2018-11-14T14:51:57.810Z,102485.00
2018-11-14T14:54:26.382Z,102482.84
2018-11-14T14:56:54.904Z,102481.49
2018-11-14T14:59:23.516Z,102478.27
2018-11-14T15:01:52.053Z,102477.98
2018-11-14T15:04:20.676Z,102476.91
2018-11-14T15:06:49.232Z,102483.14
2018-11-14T15:09:17.793Z,102477.98
2018-11-14T15:11:46.331Z,102474.19
2018-11-14T15:14:14.802Z,102475.55
2018-11-14T15:16:43.459Z,102475.58
2018-11-14T15:19:11.996Z,102470.11
2018-11-14T15:21:40.502Z,102467.66
2018-11-14T15:24:09.140Z,102461.42
2018-11-14T15:26:37.654Z,102466.28
2018-11-14T15:29:06.643Z,102458.96
2018-11-14T15:31:35.212Z,102449.73
2018-11-14T15:34:03.805Z,102453.52
2018-11-14T15:36:32.383Z,102452.42
2018-11-14T15:39:00.919Z,102447.27
2018-11-14T15:41:29.776Z,102450.50
2018-11-14T15:43:58.334Z,102455.39
2018-11-14T15:46:26.889Z,102461.08
2018-11-14T15:48:55.428Z,102463.23
2018-11-14T15:51:26.955Z,102467.05
2018-11-14T15:53:55.497Z,102468.92
2018-11-14T15:56:24.047Z,102471.10
2018-11-14T15:58:52.558Z,102470.02
2018-11-14T16:01:21.193Z,102468.09
2018-11-14T16:03:49.899Z,102472.70
2018-11-14T16:06:18.510Z,102472.70
2018-11-14T16:08:47.096Z,102468.91
2018-11-14T16:11:15.664Z,102476.21
2018-11-14T16:13:48.422Z,102475.93
2018-11-14T16:16:17.002Z,102477.02
2018-11-14T16:18:45.526Z,102474.58
2018-11-14T16:21:14.135Z,102472.11
2018-11-14T16:23:42.647Z,102476.45
2018-11-14T16:26:11.211Z,102474.28
2018-11-14T16:28:39.739Z,102482.13
2018-11-14T16:31:08.324Z,102475.36
2018-11-14T16:33:36.893Z,102482.41
2018-11-14T16:36:05.523Z,102476.70
2018-11-14T16:38:34.108Z,102479.14
2018-11-14T16:41:02.743Z,102480.47
2018-11-14T16:43:31.294Z,102489.16
2018-11-14T16:46:06.060Z,102473.44
2018-11-14T16:48:34.623Z,102478.86
2018-11-14T16:51:03.265Z,102470.16
2018-11-14T16:53:31.815Z,102472.05
2018-11-14T16:56:00.368Z,102474.20
2018-11-14T16:58:29.320Z,102470.95
2018-11-14T17:00:57.913Z,102473.10
2018-11-14T17:03:26.485Z,102466.88
2018-11-14T17:05:55.119Z,102465.51
2018-11-14T17:08:23.629Z,102467.66
2018-11-14T17:10:52.183Z,102463.34
2018-11-14T17:13:20.694Z,102472.25
2018-11-14T17:15:49.222Z,102473.31
2018-11-14T17:18:17.779Z,102477.37
2018-11-14T17:20:46.325Z,102478.48
2018-11-14T17:23:15.013Z,102467.88
2018-11-14T17:25:43.571Z,102467.34
2018-11-14T17:28:12.121Z,102468.13
2018-11-14T17:30:40.706Z,102459.47
2018-11-14T17:33:09.509Z,102459.17
2018-11-14T17:35:38.975Z,102469.99
2018-11-14T17:38:07.569Z,102469.17
2018-11-14T17:40:36.077Z,102470.23
2018-11-14T17:43:04.671Z,102472.12
2018-11-14T17:45:33.230Z,102476.96
2018-11-14T17:48:01.765Z,102471.27
2018-11-14T17:50:34.878Z,102469.38
2018-11-14T17:53:04.087Z,102467.73
2018-11-14T17:55:33.173Z,102461.78
2018-11-14T17:58:01.721Z,102464.48
2018-11-14T18:00:31.805Z,102463.60
2018-11-14T18:03:00.546Z,102461.14
2018-11-14T18:05:30.163Z,102469.25
2018-11-14T18:07:58.859Z,102473.27
2018-11-14T18:10:28.687Z,102478.16
2018-11-14T18:12:58.611Z,102480.84
2018-11-14T18:15:27.219Z,102471.88
2018-11-14T18:17:56.463Z,102468.92
2018-11-14T18:20:26.622Z,102481.37
2018-11-14T18:22:55.261Z,102471.30
2018-11-14T18:25:23.783Z,102478.07
2018-11-14T18:27:52.361Z,102472.61
2018-11-14T18:30:22.950Z,102477.73
2018-11-14T18:32:52.080Z,102475.58
2018-11-14T18:35:21.557Z,102481.27
2018-11-14T18:37:51.293Z,102482.88
2018-11-14T18:40:21.741Z,102481.50
2018-11-14T18:42:50.340Z,102481.75
2018-11-14T18:45:22.539Z,102484.14
2018-11-14T18:47:51.165Z,102476.81
2018-11-14T18:50:20.557Z,102483.81
2018-11-14T18:52:49.667Z,102478.09
2018-11-14T18:55:19.470Z,102481.05
2018-11-14T18:57:48.206Z,102481.02
2018-11-14T19:00:19.007Z,102479.64
2018-11-14T19:02:47.836Z,102476.36
2018-11-14T19:05:17.082Z,102486.38
2018-11-14T19:07:45.971Z,102479.30
2018-11-14T19:10:16.014Z,102484.40
2018-11-14T19:12:45.421Z,102481.67
2018-11-14T19:15:17.457Z,102483.83
2018-11-14T19:17:46.857Z,102484.03
2018-11-14T19:20:16.723Z,102481.59
2018-11-14T19:22:45.299Z,102478.28
2018-11-14T19:25:15.277Z,102475.03
2018-11-14T19:27:44.729Z,102475.53
2018-11-14T19:30:17.962Z,102478.75
2018-11-14T19:32:47.712Z,102470.32
2018-11-14T19:35:16.413Z,102476.25
2018-11-14T19:37:46.101Z,102471.07
2018-11-14T19:40:20.431Z,102472.39
2018-11-14T19:42:50.432Z,102469.66
2018-11-14T19:45:21.186Z,102466.12
2018-11-14T19:47:49.800Z,102466.61
2018-11-14T19:50:19.562Z,102457.95
2018-11-14T19:52:48.885Z,102464.69
2018-11-14T19:55:19.755Z,102464.08
2018-11-14T19:57:49.453Z,102467.61
2018-11-14T20:00:23.327Z,102464.08
2018-11-14T20:02:52.246Z,102461.05
2018-11-14T20:05:21.547Z,102460.73
2018-11-14T20:07:50.474Z,102459.38
2018-11-14T20:10:21.405Z,102454.23
2018-11-14T20:12:50.830Z,102455.03
2018-11-14T20:15:20.715Z,102446.90
2018-11-14T20:17:49.910Z,102449.05
2018-11-14T20:20:34.258Z,102446.03
2018-11-14T20:23:03.092Z,102439.77
2018-11-14T20:25:31.634Z,102439.98
2018-11-14T20:28:00.217Z,102437.25
2018-11-14T20:30:33.451Z,102435.31
2018-11-14T20:33:03.834Z,102430.17
2018-11-14T20:35:32.665Z,102426.09
2018-11-14T20:38:01.322Z,102437.15
2018-11-14T20:40:30.388Z,102433.61
2018-11-14T20:42:59.027Z,102436.28
2018-11-14T20:45:28.982Z,102430.04
2018-11-14T20:47:57.545Z,102425.77
2018-11-14T20:50:26.854Z,102429.49
2018-11-14T20:52:58.939Z,102428.69
2018-11-14T20:55:27.708Z,102432.16
2018-11-14T20:57:56.253Z,102429.13
2018-11-14T21:00:28.534Z,102431.54
2018-11-14T21:02:57.463Z,102439.39
2018-11-14T21:05:26.937Z,102435.55
2018-11-14T21:07:55.957Z,102438.48
2018-11-14T21:10:26.118Z,102440.09
2018-11-14T21:13:02.020Z,102437.35
2018-11-14T21:15:32.027Z,102441.36
2018-11-14T21:18:01.754Z,102433.77
2018-11-14T21:20:30.294Z,102431.29
2018-11-14T21:22:58.918Z,102432.31
2018-11-14T21:25:27.759Z,102430.66
2018-11-14T21:27:56.822Z,102428.98
2018-11-14T21:30:26.931Z,102430.30
2018-11-14T21:32:55.601Z,102431.06
2018-11-14T21:35:26.777Z,102439.13
2018-11-14T21:37:56.770Z,102435.04
2018-11-14T21:40:31.869Z,102437.73
2018-11-14T21:43:00.462Z,102433.86
2018-11-14T21:45:29.743Z,102434.91
2018-11-14T21:48:03.593Z,102439.17
2018-11-14T21:50:32.996Z,102440.77
2018-11-14T21:53:01.602Z,102440.73
2018-11-14T21:55:30.111Z,102444.45
2018-11-14T21:57:58.712Z,102442.00
2018-11-14T22:00:35.713Z,102438.97
2018-11-14T22:03:04.523Z,102444.91
2018-11-14T22:05:33.435Z,102441.58
2018-11-14T22:08:02.405Z,102440.78
2018-11-14T22:10:30.968Z,102437.20
2018-11-14T22:13:05.787Z,102435.05
2018-11-14T22:15:34.418Z,102440.40
2018-11-14T22:18:03.009Z,102441.70
2018-11-14T22:20:31.645Z,102442.20
2018-11-14T22:23:00.197Z,102439.21
2018-11-14T22:25:29.572Z,102442.70
2018-11-14T22:27:58.191Z,102439.17
2018-11-14T22:30:30.938Z,102439.46
2018-11-14T22:32:59.732Z,102440.22
2018-11-14T22:35:29.499Z,102446.16
2018-11-14T22:37:57.976Z,102444.00
2018-11-14T22:40:27.834Z,102441.27
2018-11-14T22:42:56.424Z,102444.47
2018-11-14T22:45:26.329Z,102450.66
2018-11-14T22:47:54.935Z,102449.52
2018-11-14T22:50:24.628Z,102448.13
2018-11-14T22:52:53.820Z,102445.67
2018-11-14T22:55:23.597Z,102450.48
2018-11-14T22:57:52.661Z,102449.38
2018-11-14T23:00:33.195Z,102443.40
2018-11-14T23:03:03.031Z,102441.16
2018-11-14T23:05:31.537Z,102438.66
2018-11-14T23:08:00.589Z,102436.67
2018-11-14T23:10:29.174Z,102431.48
2018-11-14T23:12:57.742Z,102432.52
2018-11-14T23:15:26.540Z,102424.90
2018-11-14T23:17:55.127Z,102423.75
2018-11-14T23:20:23.666Z,102435.88
2018-11-14T23:22:53.325Z,102428.29
2018-11-14T23:25:22.448Z,102426.34
2018-11-14T23:27:52.133Z,102423.61
2018-11-14T23:30:21.947Z,102426.55
2018-11-14T23:32:51.580Z,102419.81
2018-11-14T23:35:22.635Z,102422.75
2018-11-14T23:37:52.687Z,102424.95
2018-11-14T23:40:21.345Z,102413.03
2018-11-14T23:42:50.262Z,102419.77
2018-11-14T23:45:19.846Z,102417.06
2018-11-14T23:47:49.469Z,102413.57
2018-11-14T23:50:22.045Z,102417.80
2018-11-14T23:52:51.664Z,102417.27
2018-11-14T23:55:20.990Z,102415.63
2018-11-14T23:57:49.841Z,102413.72
